メインページ
METAR-TAF:

METAR-TAF

空港 :

バグダード, イラク

バグダード国際空港

緯度: 33-15-45N, 経度: 44-14-04E, 海抜: 35m

現時点の気象観測

当レポートは24分前の06:00(UTC)に作成
の風 7kt
気温 12°C
湿度 54%
気圧 1017 hPa
視程: 6000m
高度3500ftの雲はほとんどない
広範な塵

METAR: ORBI 140600Z 10007KT 6000 DU FEW035 12/03 Q1017 NOSIG

時間: 09:24 (06:24 UTC)

予報

当レポートは2時間24分前の04:00(UTC)に作成
予報は14日の 06時(UTC)から 15日の 06時(UTC)まで有効
変向風 3kt
視程: 5000m
煙霧

TAF: ORBI 140400Z 1406/1506 VRB03KT 5000 HZ NSC

4,000以上の空港の気象観測と天気予報(METAR報とTAF報)

利用可能な観測所は地図上に黄色い丸と赤い丸で示す。

丸の上にカーソルを重ねると観測所名を参照できる。

次にクリックすると気象観測と天気予報を参照できる。

マップの切り替え:黒色「×」印の緑ボタンをクリックして拡大、「-」印の緑ボタンをクリックして縮小、緑色の三角印をクリックして隣りの地図に切り替え


METAR-TAF: